createdAt,value
2023-02-11T00:01:36.458Z,46.50
2023-02-11T00:04:07.323Z,43.42
2023-02-11T00:06:35.999Z,47.63
2023-02-11T00:09:04.815Z,47.77
2023-02-11T00:11:34.955Z,45.73
2023-02-11T00:14:06.144Z,42.43
2023-02-11T00:16:33.429Z,46.40
2023-02-11T00:19:02.440Z,39.63
2023-02-11T00:21:29.829Z,48.87
2023-02-11T00:23:59.767Z,45.27
2023-02-11T00:26:31.335Z,44.10
2023-02-11T00:29:02.938Z,48.67
2023-02-11T00:31:30.272Z,42.40
2023-02-11T00:33:57.569Z,41.27
2023-02-11T00:36:28.040Z,45.07
2023-02-11T00:38:57.227Z,43.23
2023-02-11T00:41:24.532Z,48.63
2023-02-11T00:43:52.068Z,41.53
2023-02-11T00:46:19.547Z,42.37
2023-02-11T00:48:46.940Z,41.83
2023-02-11T00:51:14.374Z,45.70
2023-02-11T00:53:41.546Z,41.43
2023-02-11T00:56:09.360Z,48.37
2023-02-11T00:58:37.010Z,47.73
2023-02-11T01:01:07.933Z,48.97
2023-02-11T01:03:35.422Z,46.27
2023-02-11T01:06:03.046Z,46.27
2023-02-11T01:08:30.282Z,42.30
2023-02-11T01:11:04.479Z,46.00
2023-02-11T01:13:37.391Z,43.23
2023-02-11T01:16:07.863Z,43.60
2023-02-11T01:18:35.787Z,40.23
2023-02-11T01:21:03.057Z,49.90
2023-02-11T01:23:30.366Z,46.43
2023-02-11T01:25:57.594Z,44.03
2023-02-11T01:28:28.149Z,46.33
2023-02-11T01:30:55.983Z,44.33
2023-02-11T01:33:24.001Z,46.33
2023-02-11T01:35:51.994Z,42.60
2023-02-11T01:38:26.178Z,44.53
2023-02-11T01:40:59.868Z,47.00
2023-02-11T01:43:30.694Z,38.83
2023-02-11T01:46:23.472Z,48.07
2023-02-11T01:49:01.342Z,44.03
2023-02-11T01:51:38.908Z,44.50
2023-02-11T01:54:27.341Z,45.30
2023-02-11T01:57:17.619Z,46.77
2023-02-11T02:00:22.593Z,47.57
2023-02-11T02:03:25.584Z,44.03
2023-02-11T02:06:07.975Z,41.50
2023-02-11T02:08:44.758Z,48.13
2023-02-11T02:11:12.308Z,48.00
2023-02-11T02:13:39.480Z,49.23
2023-02-11T02:16:15.151Z,48.30
2023-02-11T02:21:51.932Z,48.47
2023-02-11T02:24:47.286Z,45.27
2023-02-11T02:27:44.932Z,39.83
2023-02-11T02:30:33.462Z,48.90
2023-02-11T02:33:22.316Z,45.83
2023-02-11T02:36:23.428Z,44.57
2023-02-11T02:39:13.949Z,43.03
2023-02-11T02:41:42.293Z,46.40
2023-02-11T02:44:09.780Z,58.87
2023-02-11T02:46:37.321Z,51.80
2023-02-11T02:49:12.410Z,50.40
2023-02-11T02:51:51.085Z,50.30
2023-02-11T02:55:02.775Z,46.67
2023-02-11T02:57:30.475Z,56.00
2023-02-11T03:00:42.349Z,48.63
2023-02-11T03:03:47.820Z,46.13
2023-02-11T03:06:30.536Z,48.43
2023-02-11T03:09:11.471Z,48.33
2023-02-11T03:11:39.991Z,49.60
2023-02-11T03:14:11.121Z,49.90
2023-02-11T03:16:39.661Z,49.60
2023-02-11T03:19:26.332Z,53.60
2023-02-11T03:21:55.159Z,45.17
2023-02-11T03:24:36.751Z,50.07
2023-02-11T03:28:00.061Z,46.80
2023-02-11T03:30:47.368Z,47.00
2023-02-11T03:33:29.239Z,53.77
2023-02-11T03:36:03.720Z,50.47
2023-02-11T03:38:45.123Z,53.97
2023-02-11T03:41:15.468Z,51.80
2023-02-11T03:43:51.818Z,61.63
2023-02-11T03:46:34.186Z,56.20
2023-02-11T03:49:12.393Z,60.93
2023-02-11T03:51:43.102Z,61.50
2023-02-11T03:54:16.770Z,67.07
2023-02-11T03:56:56.272Z,54.47
2023-02-11T03:59:23.463Z,52.30
2023-02-11T04:01:51.003Z,58.00
2023-02-11T04:04:18.897Z,55.43
2023-02-11T04:06:46.316Z,60.87
2023-02-11T04:09:13.482Z,58.73
2023-02-11T04:11:40.648Z,56.07
2023-02-11T04:14:07.728Z,50.40
2023-02-11T04:16:34.933Z,56.57
2023-02-11T04:19:02.188Z,61.43
2023-02-11T04:21:29.355Z,54.23
2023-02-11T04:23:56.938Z,46.87
2023-02-11T04:26:24.106Z,52.73
2023-02-11T04:28:51.296Z,55.97
2023-02-11T04:31:18.596Z,59.57
2023-02-11T04:33:45.937Z,54.53
2023-02-11T04:36:13.304Z,56.70
2023-02-11T04:38:43.685Z,60.67
2023-02-11T04:41:10.827Z,59.80
2023-02-11T04:43:37.966Z,64.17
2023-02-11T04:46:05.455Z,53.63
2023-02-11T04:48:32.784Z,61.93
2023-02-11T04:50:59.892Z,59.50
2023-02-11T04:53:26.987Z,52.97
2023-02-11T04:55:54.513Z,59.90
2023-02-11T04:58:21.811Z,65.83
2023-02-11T05:00:49.054Z,55.87
2023-02-11T05:03:16.425Z,65.50
2023-02-11T05:05:43.843Z,60.37
2023-02-11T05:08:12.215Z,66.83
2023-02-11T05:10:47.299Z,61.47
2023-02-11T05:13:14.628Z,58.27
2023-02-11T05:15:41.732Z,62.50
2023-02-11T05:18:08.890Z,63.50
2023-02-11T05:20:39.123Z,60.40
2023-02-11T05:23:06.415Z,64.00
2023-02-11T05:25:34.049Z,60.00
2023-02-11T05:28:01.830Z,55.07
2023-02-11T05:30:29.062Z,63.33
2023-02-11T05:32:56.762Z,59.80
2023-02-11T05:35:24.685Z,55.03
2023-02-11T05:37:52.344Z,66.47
2023-02-11T05:40:22.167Z,54.07
2023-02-11T05:42:49.500Z,59.63
2023-02-11T05:45:17.217Z,55.47
2023-02-11T05:47:44.343Z,55.80
2023-02-11T05:50:11.590Z,51.47
2023-02-11T05:52:38.693Z,48.37
2023-02-11T05:55:06.516Z,51.87
2023-02-11T05:57:33.856Z,53.93
2023-02-11T06:00:01.098Z,53.47
2023-02-11T06:02:31.461Z,50.33
2023-02-11T06:04:58.625Z,49.27
2023-02-11T06:07:25.734Z,53.23
2023-02-11T06:09:53.091Z,52.80
2023-02-11T06:12:20.312Z,46.00
2023-02-11T06:14:47.397Z,47.30
2023-02-11T06:17:15.713Z,48.83
2023-02-11T06:19:43.038Z,55.40
2023-02-11T06:22:10.878Z,55.97
2023-02-11T06:24:59.871Z,50.60
2023-02-11T06:27:31.701Z,55.17
2023-02-11T06:29:58.951Z,50.40
2023-02-11T06:32:45.482Z,55.17
2023-02-11T06:35:14.823Z,45.70
2023-02-11T06:37:43.214Z,51.93
2023-02-11T06:40:11.904Z,51.40
2023-02-11T06:42:39.618Z,51.13
2023-02-11T06:45:10.864Z,53.07
2023-02-11T06:47:39.275Z,52.73
2023-02-11T06:50:08.928Z,51.07
2023-02-11T06:52:37.108Z,44.47
2023-02-11T06:55:05.240Z,52.03
2023-02-11T06:57:33.010Z,57.00
2023-02-11T07:00:00.132Z,56.30
2023-02-11T07:02:27.414Z,54.97
2023-02-11T07:04:54.545Z,52.37
2023-02-11T07:07:21.752Z,50.43
2023-02-11T07:09:48.922Z,47.93
2023-02-11T07:12:16.065Z,47.60
2023-02-11T07:14:43.316Z,54.23
2023-02-11T07:17:14.372Z,49.80
2023-02-11T07:19:41.790Z,47.17
2023-02-11T07:22:08.990Z,51.13
2023-02-11T07:24:36.348Z,53.40
2023-02-11T07:27:03.431Z,45.47
2023-02-11T07:29:30.564Z,48.57
2023-02-11T07:31:57.697Z,51.47
2023-02-11T07:34:25.541Z,49.83
2023-02-11T07:36:55.896Z,42.03
2023-02-11T07:39:27.345Z,49.63
2023-02-11T07:41:55.204Z,52.43
2023-02-11T07:44:22.842Z,51.67
2023-02-11T07:46:50.209Z,46.77
2023-02-11T07:49:17.656Z,45.77
2023-02-11T07:51:45.903Z,50.90
2023-02-11T07:54:13.355Z,55.63
2023-02-11T07:56:40.600Z,46.05
2023-02-11T07:59:07.808Z,46.70
2023-02-11T08:01:34.952Z,40.63
2023-02-11T08:04:03.644Z,49.53
2023-02-11T08:06:34.209Z,44.42
2023-02-11T08:09:09.642Z,46.83
2023-02-11T08:11:37.406Z,42.80
2023-02-11T08:14:04.611Z,44.33
2023-02-11T08:16:36.305Z,46.83
2023-02-11T08:19:08.307Z,45.95
2023-02-11T08:21:35.562Z,52.10
2023-02-11T08:24:07.095Z,44.40
2023-02-11T08:26:38.667Z,45.30
2023-02-11T08:29:14.919Z,42.03
2023-02-11T08:31:46.547Z,42.53
2023-02-11T08:34:18.388Z,45.47
2023-02-11T08:36:47.548Z,40.57
2023-02-11T08:39:23.014Z,38.95
2023-02-11T08:41:56.634Z,45.73
2023-02-11T08:44:26.513Z,43.92
2023-02-11T08:46:54.121Z,45.83
2023-02-11T08:49:22.266Z,38.37
2023-02-11T08:51:50.029Z,41.40
2023-02-11T08:54:17.885Z,42.50
2023-02-11T08:56:46.413Z,40.17
2023-02-11T08:59:17.171Z,38.17
2023-02-11T09:01:44.723Z,38.47
2023-02-11T09:04:12.307Z,46.97
2023-02-11T09:06:39.955Z,36.47
2023-02-11T09:09:10.187Z,46.45
2023-02-11T09:11:41.492Z,44.88
2023-02-11T09:14:15.187Z,42.30
2023-02-11T09:16:43.775Z,38.07
2023-02-11T09:19:11.846Z,36.40
2023-02-11T09:21:39.045Z,38.35
2023-02-11T09:24:09.645Z,33.67
2023-02-11T09:26:38.887Z,40.08
2023-02-11T09:29:06.465Z,39.13
2023-02-11T09:31:34.881Z,41.50
2023-02-11T09:34:06.368Z,42.53
2023-02-11T09:36:39.443Z,47.60
2023-02-11T09:39:18.477Z,42.03
2023-02-11T09:42:04.119Z,46.00
2023-02-11T09:44:36.966Z,40.25
2023-02-11T09:47:43.586Z,42.65
2023-02-11T09:50:19.517Z,35.55
2023-02-11T09:53:03.854Z,34.22
2023-02-11T09:55:43.119Z,34.42
2023-02-11T09:58:25.388Z,42.35
2023-02-11T10:01:21.839Z,37.58
2023-02-11T10:04:04.972Z,34.30
2023-02-11T10:07:05.253Z,36.17
2023-02-11T10:09:40.687Z,38.55
2023-02-11T10:12:37.537Z,32.40
2023-02-11T10:15:14.176Z,31.98
2023-02-11T10:18:10.685Z,30.58
2023-02-11T10:21:16.200Z,34.45
2023-02-11T10:23:51.714Z,30.58
2023-02-11T10:26:20.393Z,32.45
2023-02-11T10:28:55.696Z,31.58
2023-02-11T10:31:27.176Z,29.40
2023-02-11T10:34:14.594Z,26.27
2023-02-11T10:36:44.735Z,33.42
2023-02-11T10:39:23.811Z,27.55
2023-02-11T10:42:22.279Z,30.63
2023-02-11T10:45:02.498Z,32.60
2023-02-11T10:47:37.615Z,34.50
2023-02-11T10:50:28.798Z,29.13
2023-02-11T10:53:24.390Z,32.92
2023-02-11T10:55:57.508Z,36.73
2023-02-11T10:58:42.084Z,28.52
2023-02-11T11:01:23.469Z,27.05
2023-02-11T11:03:54.689Z,26.50
2023-02-11T11:06:33.722Z,29.98
2023-02-11T11:11:28.707Z,31.00
2023-02-11T11:14:01.212Z,29.35
2023-02-11T11:16:34.269Z,31.77
2023-02-11T11:19:07.651Z,29.08
2023-02-11T11:21:48.167Z,34.50
2023-02-11T11:24:31.353Z,29.45
2023-02-11T11:27:02.699Z,32.65
2023-02-11T11:29:52.117Z,28.63
2023-02-11T11:32:28.631Z,24.45
2023-02-11T11:35:08.541Z,26.90
2023-02-11T11:37:37.779Z,32.78
2023-02-11T11:40:27.468Z,27.40
2023-02-11T11:43:12.977Z,28.35
2023-02-11T11:45:52.127Z,37.72
2023-02-11T11:48:33.000Z,28.70
2023-02-11T11:51:05.209Z,23.42
2023-02-11T11:53:44.050Z,25.90
2023-02-11T11:56:24.415Z,23.63
2023-02-11T11:58:52.003Z,27.92
2023-02-11T12:01:57.125Z,26.25
2023-02-11T12:05:28.193Z,23.25
2023-02-11T12:08:12.314Z,23.23
2023-02-11T12:11:02.988Z,21.00
2023-02-11T12:14:00.159Z,26.27
2023-02-11T12:16:50.571Z,22.10
2023-02-11T12:19:56.498Z,23.42
2023-02-11T12:22:55.193Z,21.65
2023-02-11T12:25:55.089Z,28.55
2023-02-11T12:28:59.310Z,24.90
2023-02-11T12:31:40.416Z,19.30
2023-02-11T12:34:28.897Z,18.52
2023-02-11T12:37:18.564Z,17.73
2023-02-11T12:40:24.664Z,17.80
2023-02-11T12:43:17.721Z,19.60
2023-02-11T12:46:15.459Z,17.05
2023-02-11T12:49:09.731Z,21.63
2023-02-11T12:52:01.714Z,23.88
2023-02-11T12:55:02.593Z,21.00
2023-02-11T12:57:35.020Z,24.30
2023-02-11T13:00:51.319Z,29.27
2023-02-11T13:03:20.964Z,26.20
2023-02-11T13:06:17.875Z,22.20
2023-02-11T13:08:55.773Z,28.00
2023-02-11T13:11:57.260Z,29.63
2023-02-11T13:14:35.729Z,24.13
2023-02-11T13:17:17.954Z,31.55
2023-02-11T13:19:58.309Z,25.77
2023-02-11T13:22:53.983Z,28.20
2023-02-11T13:25:45.260Z,29.02
2023-02-11T13:28:37.517Z,23.65
2023-02-11T13:31:08.111Z,27.20
2023-02-11T13:33:43.316Z,26.35
2023-02-11T13:36:14.153Z,24.55
2023-02-11T13:38:51.460Z,32.30
2023-02-11T13:41:35.256Z,26.00
2023-02-11T13:44:11.843Z,28.45
2023-02-11T13:47:07.851Z,29.50
2023-02-11T13:49:49.424Z,33.70
2023-02-11T13:52:39.640Z,34.42
2023-02-11T13:55:23.265Z,31.92
2023-02-11T13:58:18.279Z,31.30
2023-02-11T14:00:51.362Z,26.95
2023-02-11T14:03:57.512Z,33.97
2023-02-11T14:06:48.238Z,26.92
2023-02-11T14:09:17.507Z,28.77
2023-02-11T14:11:50.837Z,26.83
2023-02-11T14:14:33.704Z,27.42
2023-02-11T14:17:07.512Z,26.95
2023-02-11T14:19:44.543Z,22.02
2023-02-11T14:22:22.289Z,27.52
2023-02-11T14:25:02.262Z,29.13
2023-02-11T14:27:30.134Z,26.92
2023-02-11T14:30:31.775Z,23.73
2023-02-11T14:33:27.387Z,23.85
2023-02-11T14:36:44.009Z,27.77
2023-02-11T14:39:31.370Z,24.10
2023-02-11T14:42:03.048Z,22.05
2023-02-11T14:44:33.675Z,25.60
2023-02-11T14:47:01.263Z,31.45
2023-02-11T14:49:39.468Z,28.90
2023-02-11T14:52:39.012Z,21.83
2023-02-11T14:55:31.383Z,26.23
2023-02-11T14:58:20.100Z,21.85
2023-02-11T15:01:07.022Z,21.10
2023-02-11T15:03:43.017Z,24.95
2023-02-11T15:06:24.311Z,23.48
2023-02-11T15:09:13.704Z,21.48
2023-02-11T15:11:47.842Z,23.98
2023-02-11T15:14:33.360Z,24.67
2023-02-11T15:17:11.577Z,21.00
2023-02-11T15:19:48.770Z,18.55
2023-02-11T15:22:30.583Z,23.23
2023-02-11T15:25:18.578Z,23.17
2023-02-11T15:27:57.268Z,20.45
2023-02-11T15:30:32.295Z,18.88
2023-02-11T15:33:06.451Z,20.08
2023-02-11T15:35:39.910Z,22.17
2023-02-11T15:38:13.981Z,22.33
2023-02-11T15:40:51.781Z,22.20
2023-02-11T15:43:20.350Z,22.10
2023-02-11T15:46:03.921Z,24.50
2023-02-11T15:48:54.579Z,19.92
2023-02-11T15:51:35.129Z,19.13
2023-02-11T15:54:06.741Z,22.27
2023-02-11T15:56:45.640Z,19.58
2023-02-11T15:59:20.718Z,23.00
2023-02-11T16:01:50.493Z,19.33
2023-02-11T16:04:23.224Z,16.15
2023-02-11T16:06:57.248Z,18.38
2023-02-11T16:09:35.626Z,21.45
2023-02-11T16:12:21.956Z,21.27
2023-02-11T16:14:53.276Z,23.20
2023-02-11T16:17:30.094Z,22.75
2023-02-11T16:19:58.820Z,18.27
2023-02-11T16:22:35.920Z,19.73
2023-02-11T16:25:04.075Z,20.73
2023-02-11T16:27:42.997Z,21.38
2023-02-11T16:30:38.378Z,20.40
2023-02-11T16:33:06.833Z,22.52
2023-02-11T16:35:35.023Z,20.85
2023-02-11T16:38:06.471Z,22.23
2023-02-11T16:40:34.967Z,22.95
2023-02-11T16:43:03.242Z,25.92
2023-02-11T16:45:32.215Z,23.13
2023-02-11T16:48:00.763Z,19.88
2023-02-11T16:50:30.142Z,26.02
2023-02-11T16:52:59.958Z,21.88
2023-02-11T16:55:27.695Z,21.38
2023-02-11T16:57:55.846Z,23.77
2023-02-11T17:00:24.549Z,22.50
2023-02-11T17:02:53.857Z,26.20
2023-02-11T17:05:25.292Z,22.55
2023-02-11T17:07:56.865Z,25.10
2023-02-11T17:10:27.656Z,25.95
2023-02-11T17:12:56.068Z,25.90
2023-02-11T17:15:24.173Z,21.35
2023-02-11T17:17:53.692Z,27.73
2023-02-11T17:20:25.714Z,24.80
2023-02-11T17:22:54.155Z,28.70
2023-02-11T17:25:24.037Z,24.25
2023-02-11T17:27:52.950Z,27.52
2023-02-11T17:30:27.488Z,25.95
2023-02-11T17:32:59.424Z,27.00
2023-02-11T17:35:28.409Z,26.38
2023-02-11T17:37:59.263Z,22.35
2023-02-11T17:40:27.637Z,24.38
2023-02-11T17:42:55.761Z,25.50
2023-02-11T17:45:23.979Z,25.52
2023-02-11T17:47:52.782Z,30.40
2023-02-11T17:50:21.284Z,26.73
2023-02-11T17:52:49.892Z,24.92
2023-02-11T17:55:19.771Z,24.63
2023-02-11T17:57:47.840Z,23.77
2023-02-11T18:00:16.786Z,26.60
2023-02-11T18:02:44.570Z,27.90
2023-02-11T18:05:15.309Z,29.92
2023-02-11T18:07:43.699Z,28.25
2023-02-11T18:10:12.621Z,25.42
2023-02-11T18:12:41.319Z,26.73
2023-02-11T18:15:10.137Z,27.88
2023-02-11T18:17:39.637Z,26.05
2023-02-11T18:20:09.363Z,27.73
2023-02-11T18:22:40.013Z,29.80
2023-02-11T18:25:11.702Z,23.95
2023-02-11T18:27:40.500Z,25.65
2023-02-11T18:30:17.811Z,29.75
2023-02-11T18:32:46.026Z,30.80
2023-02-11T18:35:16.678Z,27.55
2023-02-11T18:37:45.703Z,26.02
2023-02-11T18:40:15.588Z,24.55
2023-02-11T18:42:46.042Z,25.55
2023-02-11T18:45:16.070Z,23.95
2023-02-11T18:47:44.407Z,27.85
2023-02-11T18:50:15.312Z,25.35
2023-02-11T18:52:43.655Z,27.35
2023-02-11T18:55:11.795Z,33.92
2023-02-11T18:57:40.210Z,28.88
2023-02-11T19:00:12.047Z,28.42
2023-02-11T19:02:40.957Z,25.63
2023-02-11T19:05:09.745Z,23.52
2023-02-11T19:07:38.857Z,30.42
2023-02-11T19:10:08.274Z,26.35
2023-02-11T19:12:38.850Z,25.08
2023-02-11T19:15:09.292Z,25.20
2023-02-11T19:17:37.196Z,27.73
2023-02-11T19:20:06.750Z,31.10
2023-02-11T19:22:35.229Z,26.95
2023-02-11T19:25:03.841Z,27.63
2023-02-11T19:27:32.262Z,24.08
2023-02-11T19:30:00.641Z,23.88
2023-02-11T19:32:29.250Z,25.30
2023-02-11T19:35:00.548Z,24.55
2023-02-11T19:37:28.837Z,23.10
2023-02-11T19:39:57.063Z,26.58
2023-02-11T19:42:27.641Z,27.23
2023-02-11T19:45:00.778Z,24.88
2023-02-11T19:47:29.065Z,27.50
2023-02-11T19:49:58.897Z,26.38
2023-02-11T19:52:26.922Z,24.63
2023-02-11T19:54:55.304Z,29.10
2023-02-11T19:57:23.902Z,22.55
2023-02-11T19:59:56.279Z,24.77
2023-02-11T20:02:25.065Z,25.38
2023-02-11T20:04:53.502Z,28.92
2023-02-11T20:07:22.238Z,22.55
2023-02-11T20:09:53.871Z,33.00
2023-02-11T20:12:22.662Z,26.30
2023-02-11T20:14:50.983Z,25.30
2023-02-11T20:17:19.203Z,25.42
2023-02-11T20:19:47.658Z,25.30
2023-02-11T20:22:16.193Z,27.80
2023-02-11T20:24:45.042Z,24.70
2023-02-11T20:27:13.326Z,29.30
2023-02-11T20:29:41.738Z,26.80
2023-02-11T20:32:11.454Z,29.92
2023-02-11T20:34:40.068Z,24.13
2023-02-11T20:37:10.136Z,27.88
2023-02-11T20:39:41.559Z,28.48
2023-02-11T20:42:13.193Z,26.55
2023-02-11T20:44:41.758Z,24.33
2023-02-11T20:47:10.304Z,25.70
2023-02-11T20:49:37.948Z,35.58
2023-02-11T20:52:06.144Z,31.00
2023-02-11T20:54:34.525Z,31.42
2023-02-11T20:57:03.847Z,24.25
2023-02-11T20:59:32.487Z,25.17
2023-02-11T21:02:01.852Z,28.48
2023-02-11T21:04:32.917Z,24.33
2023-02-11T21:07:02.799Z,29.45
2023-02-11T21:09:34.872Z,28.42
2023-02-11T21:12:04.558Z,32.08
2023-02-11T21:14:34.619Z,31.35
2023-02-11T21:17:03.534Z,32.95
2023-02-11T21:19:31.809Z,27.20
2023-02-11T21:22:01.370Z,25.25
2023-02-11T21:24:31.210Z,30.15
2023-02-11T21:26:59.517Z,29.38
2023-02-11T21:29:27.265Z,27.13
2023-02-11T21:31:55.615Z,28.15
2023-02-11T21:34:24.206Z,26.58
2023-02-11T21:36:52.948Z,27.65
2023-02-11T21:39:22.388Z,27.33
2023-02-11T21:41:50.358Z,28.50
2023-02-11T21:44:22.267Z,27.02
2023-02-11T21:46:52.569Z,26.25
2023-02-11T21:49:20.357Z,25.17
2023-02-11T21:51:47.767Z,27.75
2023-02-11T21:54:16.215Z,26.35
2023-02-11T21:56:43.942Z,25.38
2023-02-11T21:59:18.315Z,22.95
2023-02-11T22:01:47.279Z,22.45
2023-02-11T22:04:14.505Z,24.08
2023-02-11T22:06:42.012Z,25.52
2023-02-11T22:09:11.155Z,27.35
2023-02-11T22:11:39.019Z,27.95
2023-02-11T22:14:09.999Z,29.60
2023-02-11T22:16:41.057Z,28.92
2023-02-11T22:19:09.382Z,26.27
2023-02-11T22:21:36.867Z,25.48
2023-02-11T22:24:04.711Z,29.15
2023-02-11T22:26:31.942Z,31.17
2023-02-11T22:28:59.100Z,28.73
2023-02-11T22:31:30.618Z,25.25
2023-02-11T22:33:59.403Z,30.20
2023-02-11T22:36:31.060Z,25.70
2023-02-11T22:39:09.244Z,25.88
2023-02-11T22:41:38.383Z,26.40
2023-02-11T22:44:05.733Z,25.20
2023-02-11T22:46:32.934Z,28.30
2023-02-11T22:49:00.275Z,29.50
2023-02-11T22:51:29.854Z,28.63
2023-02-11T22:53:59.347Z,25.40
2023-02-11T22:56:28.071Z,27.40
2023-02-11T22:58:58.630Z,26.70
2023-02-11T23:01:26.067Z,23.48
2023-02-11T23:03:53.326Z,27.95
2023-02-11T23:06:21.287Z,27.15
2023-02-11T23:08:48.448Z,22.55
2023-02-11T23:11:19.972Z,27.42
2023-02-11T23:13:49.084Z,23.15
2023-02-11T23:16:20.963Z,26.65
2023-02-11T23:18:49.525Z,25.25
2023-02-11T23:21:26.807Z,23.90
2023-02-11T23:23:57.723Z,20.77
2023-02-11T23:26:28.710Z,25.10
2023-02-11T23:28:57.423Z,24.25
2023-02-11T23:31:37.600Z,26.08
2023-02-11T23:34:07.664Z,23.42
2023-02-11T23:36:35.110Z,22.13
2023-02-11T23:39:02.473Z,25.60
2023-02-11T23:41:29.743Z,23.42
2023-02-11T23:43:57.985Z,23.50
2023-02-11T23:46:28.531Z,23.77
2023-02-11T23:48:55.708Z,23.40
2023-02-11T23:51:23.340Z,23.67
2023-02-11T23:53:54.156Z,24.05
2023-02-11T23:56:27.700Z,20.63
2023-02-11T23:58:58.757Z,25.05
